N633DC LLHZ-LLHZ

Flight info

Callsign N633DC
Flight time 0h 9m
Altitude 800
Route CVFR
Aircraft DA40/L-SDE/C

Departure

Time 2026-04-17 21:22
Airport Herzliya Airport (LLHZ)

Arrival

Time 2026-04-17 21:32
Airport Herzliya Airport (LLHZ)
Time Latitude Longitude Altitude Speed Heading
2026-04-17 21:15 32.18015 34.83334 103 ft 0 kts
2026-04-17 21:20 32.18021 34.83344 105 ft 8 kts 79°
2026-04-17 21:20 32.17997 34.83446 107 ft 19 kts 108°
2026-04-17 21:20 32.17944 34.83626 113 ft 25 kts 107°
2026-04-17 21:21 32.17889 34.83820 121 ft 20 kts 109°
2026-04-17 21:21 32.17881 34.83851 122 ft 0 kts 86°
2026-04-17 21:21 32.17903 34.83864 124 ft 12 kts 358°
2026-04-17 21:21 32.17931 34.83795 121 ft 7 kts 291°
2026-04-17 21:22 32.18037 34.83433 121 ft 78 kts 293°
2026-04-17 21:22 32.18260 34.82777 321 ft 86 kts 313°
2026-04-17 21:22 32.18804 34.82722 626 ft 84 kts 11°
2026-04-17 21:22 32.19388 34.82994 803 ft 95 kts 64°
2026-04-17 21:23 32.19174 34.83818 658 ft 130 kts 123°
2026-04-17 21:23 32.18759 34.84758 650 ft 119 kts 104°
2026-04-17 21:23 32.18472 34.85410 794 ft 76 kts 161°
2026-04-17 21:23 32.17941 34.85269 629 ft 85 kts 197°
2026-04-17 21:24 32.17522 34.84919 577 ft 73 kts 281°
2026-04-17 21:24 32.17767 34.84381 345 ft 78 kts 289°
2026-04-17 21:24 32.17923 34.83790 250 ft 73 kts 296°
2026-04-17 21:24 32.18193 34.83193 459 ft 85 kts 302°
2026-04-17 21:25 32.18614 34.82740 527 ft 101 kts 16°
2026-04-17 21:25 32.19276 34.83082 741 ft 101 kts 37°
2026-04-17 21:25 32.19217 34.83862 818 ft 117 kts 120°
2026-04-17 21:25 32.18884 34.84741 793 ft 122 kts 111°
2026-04-17 21:26 32.18419 34.85388 668 ft 99 kts 176°
2026-04-17 21:26 32.17736 34.85195 550 ft 95 kts 206°
2026-04-17 21:26 32.17692 34.84589 389 ft 87 kts 290°
2026-04-17 21:26 32.17893 34.83910 143 ft 83 kts 292°
2026-04-17 21:27 32.18073 34.83320 101 ft 70 kts 293°
2026-04-17 21:27 32.18277 34.82733 246 ft 84 kts 311°
2026-04-17 21:27 32.18817 34.82699 501 ft 85 kts 14°
2026-04-17 21:27 32.19305 34.83072 707 ft 94 kts 79°
2026-04-17 21:28 32.19104 34.83869 831 ft 110 kts 110°
2026-04-17 21:28 32.18847 34.84740 755 ft 118 kts 112°
2026-04-17 21:28 32.18389 34.85376 596 ft 96 kts 183°
2026-04-17 21:28 32.17775 34.85188 466 ft 88 kts 197°
2026-04-17 21:29 32.17665 34.84654 374 ft 75 kts 290°
2026-04-17 21:29 32.17851 34.84069 187 ft 76 kts 290°
2026-04-17 21:29 32.18018 34.83502 105 ft 69 kts 291°
2026-04-17 21:29 32.18172 34.83008 119 ft 64 kts 292°
2026-04-17 21:30 32.18458 34.82633 349 ft 70 kts
2026-04-17 21:30 32.18973 34.82943 384 ft 100 kts 40°
2026-04-17 21:30 32.19232 34.83384 577 ft 97 kts 76°
2026-04-17 21:30 32.18936 34.84432 757 ft 114 kts 115°
2026-04-17 21:31 32.18605 34.85359 658 ft 129 kts 119°
2026-04-17 21:31 32.17997 34.85286 597 ft 101 kts 211°
2026-04-17 21:31 32.17590 34.85013 491 ft 96 kts 242°
2026-04-17 21:31 32.17761 34.84352 253 ft 88 kts 292°
2026-04-17 21:32 32.17955 34.83712 114 ft 76 kts 292°
2026-04-17 21:32 32.18109 34.83184 92 ft 51 kts 288°
2026-04-17 21:32 32.18168 34.82962 89 ft 8 kts 222°